sensor_id;sensor_type;location;lat;lon;timestamp;P1;durP1;ratioP1;P2;durP2;ratioP2
34739;SDS011;20967;48.442;9.994;2023-04-16T00:02:29;4.40;;;2.98;;
34739;SDS011;20967;48.442;9.994;2023-04-16T00:04:57;4.35;;;2.92;;
34739;SDS011;20967;48.442;9.994;2023-04-16T00:07:24;4.85;;;2.77;;
34739;SDS011;20967;48.442;9.994;2023-04-16T00:09:52;4.35;;;3.00;;
34739;SDS011;20967;48.442;9.994;2023-04-16T00:12:20;6.22;;;3.12;;
34739;SDS011;20967;48.442;9.994;2023-04-16T00:14:49;6.92;;;2.75;;
34739;SDS011;20967;48.442;9.994;2023-04-16T00:17:16;6.22;;;3.55;;
34739;SDS011;20967;48.442;9.994;2023-04-16T00:19:44;7.05;;;3.70;;
34739;SDS011;20967;48.442;9.994;2023-04-16T00:22:14;6.25;;;3.65;;
34739;SDS011;20967;48.442;9.994;2023-04-16T00:24:41;5.08;;;3.02;;
34739;SDS011;20967;48.442;9.994;2023-04-16T00:27:09;5.40;;;3.40;;
34739;SDS011;20967;48.442;9.994;2023-04-16T00:29:37;6.20;;;3.37;;
34739;SDS011;20967;48.442;9.994;2023-04-16T00:32:05;5.42;;;3.25;;
34739;SDS011;20967;48.442;9.994;2023-04-16T00:34:33;5.42;;;3.72;;
34739;SDS011;20967;48.442;9.994;2023-04-16T00:37:00;5.95;;;3.52;;
34739;SDS011;20967;48.442;9.994;2023-04-16T00:39:30;8.25;;;3.58;;
34739;SDS011;20967;48.442;9.994;2023-04-16T00:41:58;6.47;;;3.40;;
34739;SDS011;20967;48.442;9.994;2023-04-16T00:44:25;5.92;;;4.17;;
34739;SDS011;20967;48.442;9.994;2023-04-16T00:46:54;6.00;;;3.62;;
34739;SDS011;20967;48.442;9.994;2023-04-16T00:49:23;6.55;;;4.12;;
34739;SDS011;20967;48.442;9.994;2023-04-16T00:51:51;7.97;;;3.85;;
34739;SDS011;20967;48.442;9.994;2023-04-16T00:54:18;5.60;;;3.67;;
34739;SDS011;20967;48.442;9.994;2023-04-16T00:56:47;7.55;;;4.08;;
34739;SDS011;20967;48.442;9.994;2023-04-16T00:59:15;7.60;;;4.05;;
34739;SDS011;20967;48.442;9.994;2023-04-16T01:01:43;10.72;;;4.40;;
34739;SDS011;20967;48.442;9.994;2023-04-16T01:04:11;5.50;;;3.72;;
34739;SDS011;20967;48.442;9.994;2023-04-16T01:06:38;6.30;;;3.70;;
34739;SDS011;20967;48.442;9.994;2023-04-16T01:09:09;7.95;;;4.58;;
34739;SDS011;20967;48.442;9.994;2023-04-16T01:11:38;5.62;;;3.75;;
34739;SDS011;20967;48.442;9.994;2023-04-16T01:14:06;8.40;;;4.30;;
34739;SDS011;20967;48.442;9.994;2023-04-16T01:16:33;7.45;;;4.37;;
34739;SDS011;20967;48.442;9.994;2023-04-16T01:19:01;6.75;;;4.28;;
34739;SDS011;20967;48.442;9.994;2023-04-16T01:21:29;9.23;;;4.30;;
34739;SDS011;20967;48.442;9.994;2023-04-16T01:24:00;8.83;;;4.15;;
34739;SDS011;20967;48.442;9.994;2023-04-16T01:29:08;8.75;;;4.35;;
34739;SDS011;20967;48.442;9.994;2023-04-16T01:31:39;7.35;;;4.22;;
34739;SDS011;20967;48.442;9.994;2023-04-16T01:34:07;6.08;;;4.00;;
34739;SDS011;20967;48.442;9.994;2023-04-16T01:36:35;7.33;;;4.60;;
34739;SDS011;20967;48.442;9.994;2023-04-16T01:39:03;7.05;;;4.17;;
34739;SDS011;20967;48.442;9.994;2023-04-16T01:41:30;9.48;;;4.42;;
34739;SDS011;20967;48.442;9.994;2023-04-16T01:43:58;8.55;;;4.83;;
34739;SDS011;20967;48.442;9.994;2023-04-16T01:46:26;6.97;;;4.37;;
34739;SDS011;20967;48.442;9.994;2023-04-16T01:48:56;8.95;;;5.15;;
34739;SDS011;20967;48.442;9.994;2023-04-16T01:51:24;8.70;;;4.85;;
34739;SDS011;20967;48.442;9.994;2023-04-16T01:53:53;7.40;;;4.75;;
34739;SDS011;20967;48.442;9.994;2023-04-16T01:56:23;7.97;;;4.70;;
34739;SDS011;20967;48.442;9.994;2023-04-16T01:58:51;8.13;;;5.08;;
34739;SDS011;20967;48.442;9.994;2023-04-16T02:01:19;9.10;;;4.35;;
34739;SDS011;20967;48.442;9.994;2023-04-16T02:03:47;8.05;;;4.62;;
34739;SDS011;20967;48.442;9.994;2023-04-16T02:06:15;7.22;;;4.75;;
34739;SDS011;20967;48.442;9.994;2023-04-16T02:08:43;7.33;;;4.00;;
34739;SDS011;20967;48.442;9.994;2023-04-16T02:11:12;11.57;;;5.03;;
34739;SDS011;20967;48.442;9.994;2023-04-16T02:13:41;9.88;;;5.35;;
34739;SDS011;20967;48.442;9.994;2023-04-16T02:16:09;12.00;;;5.53;;
34739;SDS011;20967;48.442;9.994;2023-04-16T02:18:36;9.23;;;5.10;;
34739;SDS011;20967;48.442;9.994;2023-04-16T02:21:06;9.30;;;5.15;;
34739;SDS011;20967;48.442;9.994;2023-04-16T02:23:35;10.03;;;5.55;;
34739;SDS011;20967;48.442;9.994;2023-04-16T02:26:05;8.60;;;4.90;;
34739;SDS011;20967;48.442;9.994;2023-04-16T02:28:34;17.55;;;5.17;;
34739;SDS011;20967;48.442;9.994;2023-04-16T02:31:02;8.68;;;5.05;;
34739;SDS011;20967;48.442;9.994;2023-04-16T02:33:30;14.25;;;5.87;;
34739;SDS011;20967;48.442;9.994;2023-04-16T02:35:58;11.08;;;5.28;;
34739;SDS011;20967;48.442;9.994;2023-04-16T02:38:25;8.10;;;4.67;;
34739;SDS011;20967;48.442;9.994;2023-04-16T02:40:53;9.88;;;5.37;;
34739;SDS011;20967;48.442;9.994;2023-04-16T02:43:21;8.28;;;5.15;;
34739;SDS011;20967;48.442;9.994;2023-04-16T02:45:48;8.88;;;5.10;;
34739;SDS011;20967;48.442;9.994;2023-04-16T02:48:16;9.25;;;5.25;;
34739;SDS011;20967;48.442;9.994;2023-04-16T02:50:44;10.38;;;5.35;;
34739;SDS011;20967;48.442;9.994;2023-04-16T02:53:12;9.53;;;5.35;;
34739;SDS011;20967;48.442;9.994;2023-04-16T02:55:39;10.00;;;5.30;;
34739;SDS011;20967;48.442;9.994;2023-04-16T02:58:07;9.63;;;5.45;;
34739;SDS011;20967;48.442;9.994;2023-04-16T03:00:36;9.33;;;4.95;;
34739;SDS011;20967;48.442;9.994;2023-04-16T03:03:04;8.43;;;4.75;;
34739;SDS011;20967;48.442;9.994;2023-04-16T03:05:32;8.93;;;5.37;;
34739;SDS011;20967;48.442;9.994;2023-04-16T03:08:00;10.70;;;5.72;;
34739;SDS011;20967;48.442;9.994;2023-04-16T03:10:29;10.38;;;5.45;;
34739;SDS011;20967;48.442;9.994;2023-04-16T03:12:57;10.85;;;5.78;;
34739;SDS011;20967;48.442;9.994;2023-04-16T03:15:25;10.60;;;5.40;;
34739;SDS011;20967;48.442;9.994;2023-04-16T03:17:53;12.03;;;6.08;;
34739;SDS011;20967;48.442;9.994;2023-04-16T03:20:25;10.28;;;5.28;;
34739;SDS011;20967;48.442;9.994;2023-04-16T03:22:53;14.03;;;6.12;;
34739;SDS011;20967;48.442;9.994;2023-04-16T03:25:24;11.97;;;6.08;;
34739;SDS011;20967;48.442;9.994;2023-04-16T03:27:51;12.07;;;5.40;;
34739;SDS011;20967;48.442;9.994;2023-04-16T03:30:19;9.70;;;5.40;;
34739;SDS011;20967;48.442;9.994;2023-04-16T03:32:47;9.50;;;5.55;;
34739;SDS011;20967;48.442;9.994;2023-04-16T03:35:15;10.58;;;5.22;;
34739;SDS011;20967;48.442;9.994;2023-04-16T03:37:43;9.53;;;5.28;;
34739;SDS011;20967;48.442;9.994;2023-04-16T03:40:15;11.48;;;5.00;;
34739;SDS011;20967;48.442;9.994;2023-04-16T03:42:42;6.65;;;3.80;;
34739;SDS011;20967;48.442;9.994;2023-04-16T03:45:10;5.40;;;3.40;;
34739;SDS011;20967;48.442;9.994;2023-04-16T03:47:38;5.17;;;3.00;;
34739;SDS011;20967;48.442;9.994;2023-04-16T03:50:06;5.40;;;3.40;;
34739;SDS011;20967;48.442;9.994;2023-04-16T03:52:34;5.15;;;3.27;;
34739;SDS011;20967;48.442;9.994;2023-04-16T03:55:02;4.58;;;2.65;;
34739;SDS011;20967;48.442;9.994;2023-04-16T03:57:30;4.70;;;2.92;;
34739;SDS011;20967;48.442;9.994;2023-04-16T03:59:57;3.90;;;2.42;;
34739;SDS011;20967;48.442;9.994;2023-04-16T04:02:25;4.72;;;2.98;;
34739;SDS011;20967;48.442;9.994;2023-04-16T04:04:53;3.98;;;2.62;;
34739;SDS011;20967;48.442;9.994;2023-04-16T04:07:21;3.77;;;2.58;;
34739;SDS011;20967;48.442;9.994;2023-04-16T04:09:48;4.37;;;2.40;;
34739;SDS011;20967;48.442;9.994;2023-04-16T04:12:16;5.00;;;2.92;;
34739;SDS011;20967;48.442;9.994;2023-04-16T04:14:44;3.87;;;2.08;;
34739;SDS011;20967;48.442;9.994;2023-04-16T04:17:12;3.98;;;2.37;;
34739;SDS011;20967;48.442;9.994;2023-04-16T04:19:39;3.95;;;2.15;;
34739;SDS011;20967;48.442;9.994;2023-04-16T04:22:07;4.22;;;2.50;;
34739;SDS011;20967;48.442;9.994;2023-04-16T04:24:35;4.22;;;2.30;;
34739;SDS011;20967;48.442;9.994;2023-04-16T04:27:03;3.05;;;2.15;;
34739;SDS011;20967;48.442;9.994;2023-04-16T04:29:30;2.98;;;1.80;;
34739;SDS011;20967;48.442;9.994;2023-04-16T04:31:58;4.17;;;2.35;;
34739;SDS011;20967;48.442;9.994;2023-04-16T04:34:26;3.90;;;2.35;;
34739;SDS011;20967;48.442;9.994;2023-04-16T04:36:54;2.92;;;1.90;;
34739;SDS011;20967;48.442;9.994;2023-04-16T04:39:21;6.67;;;2.45;;
34739;SDS011;20967;48.442;9.994;2023-04-16T04:41:49;5.15;;;2.45;;
34739;SDS011;20967;48.442;9.994;2023-04-16T04:44:18;3.15;;;1.92;;
34739;SDS011;20967;48.442;9.994;2023-04-16T04:46:48;4.53;;;2.47;;
34739;SDS011;20967;48.442;9.994;2023-04-16T04:49:16;3.62;;;2.05;;
34739;SDS011;20967;48.442;9.994;2023-04-16T04:51:43;4.00;;;2.37;;
34739;SDS011;20967;48.442;9.994;2023-04-16T04:54:11;3.90;;;2.20;;
34739;SDS011;20967;48.442;9.994;2023-04-16T04:56:40;4.03;;;2.40;;
34739;SDS011;20967;48.442;9.994;2023-04-16T04:59:09;2.85;;;1.90;;
34739;SDS011;20967;48.442;9.994;2023-04-16T05:01:37;4.15;;;2.30;;
34739;SDS011;20967;48.442;9.994;2023-04-16T05:04:05;4.10;;;1.77;;
34739;SDS011;20967;48.442;9.994;2023-04-16T05:06:33;3.95;;;1.80;;
34739;SDS011;20967;48.442;9.994;2023-04-16T05:09:01;2.67;;;2.08;;
34739;SDS011;20967;48.442;9.994;2023-04-16T05:11:28;3.15;;;1.87;;
34739;SDS011;20967;48.442;9.994;2023-04-16T05:13:56;1.82;;;1.20;;
34739;SDS011;20967;48.442;9.994;2023-04-16T05:16:24;2.95;;;1.80;;
34739;SDS011;20967;48.442;9.994;2023-04-16T05:18:54;2.55;;;1.50;;
34739;SDS011;20967;48.442;9.994;2023-04-16T05:21:21;3.02;;;1.67;;
34739;SDS011;20967;48.442;9.994;2023-04-16T05:23:49;3.22;;;1.80;;
34739;SDS011;20967;48.442;9.994;2023-04-16T05:26:18;2.25;;;1.60;;
34739;SDS011;20967;48.442;9.994;2023-04-16T05:28:46;2.85;;;1.70;;
34739;SDS011;20967;48.442;9.994;2023-04-16T05:31:14;1.98;;;1.42;;
34739;SDS011;20967;48.442;9.994;2023-04-16T05:33:41;3.55;;;1.87;;
34739;SDS011;20967;48.442;9.994;2023-04-16T05:36:09;2.45;;;1.35;;
34739;SDS011;20967;48.442;9.994;2023-04-16T05:38:37;2.27;;;1.32;;
34739;SDS011;20967;48.442;9.994;2023-04-16T05:41:05;2.27;;;1.57;;
34739;SDS011;20967;48.442;9.994;2023-04-16T05:43:32;3.75;;;2.35;;
34739;SDS011;20967;48.442;9.994;2023-04-16T05:46:00;1.92;;;1.30;;
34739;SDS011;20967;48.442;9.994;2023-04-16T05:48:30;3.20;;;1.87;;
34739;SDS011;20967;48.442;9.994;2023-04-16T05:50:59;2.20;;;1.27;;
34739;SDS011;20967;48.442;9.994;2023-04-16T05:53:27;3.33;;;1.92;;
34739;SDS011;20967;48.442;9.994;2023-04-16T05:55:56;1.75;;;1.40;;
34739;SDS011;20967;48.442;9.994;2023-04-16T05:58:24;2.47;;;1.25;;
34739;SDS011;20967;48.442;9.994;2023-04-16T06:00:52;2.35;;;1.70;;
34739;SDS011;20967;48.442;9.994;2023-04-16T06:03:19;2.95;;;1.65;;
34739;SDS011;20967;48.442;9.994;2023-04-16T06:05:49;2.87;;;1.47;;
34739;SDS011;20967;48.442;9.994;2023-04-16T06:08:17;2.33;;;1.37;;
34739;SDS011;20967;48.442;9.994;2023-04-16T06:10:45;2.20;;;1.65;;
34739;SDS011;20967;48.442;9.994;2023-04-16T06:13:14;3.58;;;1.62;;
34739;SDS011;20967;48.442;9.994;2023-04-16T06:15:42;1.98;;;1.02;;
34739;SDS011;20967;48.442;9.994;2023-04-16T06:18:09;2.83;;;1.72;;
34739;SDS011;20967;48.442;9.994;2023-04-16T06:20:37;4.03;;;2.40;;
34739;SDS011;20967;48.442;9.994;2023-04-16T06:23:05;3.17;;;1.85;;
34739;SDS011;20967;48.442;9.994;2023-04-16T06:25:35;3.67;;;2.33;;
34739;SDS011;20967;48.442;9.994;2023-04-16T06:28:03;3.30;;;2.20;;
34739;SDS011;20967;48.442;9.994;2023-04-16T06:30:31;3.40;;;1.85;;
34739;SDS011;20967;48.442;9.994;2023-04-16T06:32:59;2.40;;;1.67;;
34739;SDS011;20967;48.442;9.994;2023-04-16T06:35:27;3.47;;;1.98;;
34739;SDS011;20967;48.442;9.994;2023-04-16T06:37:55;2.37;;;1.67;;
34739;SDS011;20967;48.442;9.994;2023-04-16T06:40:25;5.90;;;1.98;;
34739;SDS011;20967;48.442;9.994;2023-04-16T06:42:55;2.42;;;1.30;;
34739;SDS011;20967;48.442;9.994;2023-04-16T06:45:26;1.52;;;1.00;;
34739;SDS011;20967;48.442;9.994;2023-04-16T06:47:58;2.00;;;1.20;;
34739;SDS011;20967;48.442;9.994;2023-04-16T06:50:31;2.65;;;1.40;;
34739;SDS011;20967;48.442;9.994;2023-04-16T06:55:32;1.62;;;1.20;;
34739;SDS011;20967;48.442;9.994;2023-04-16T06:58:04;1.80;;;1.30;;
34739;SDS011;20967;48.442;9.994;2023-04-16T07:00:36;2.30;;;1.42;;
34739;SDS011;20967;48.442;9.994;2023-04-16T07:03:08;4.55;;;1.45;;
34739;SDS011;20967;48.442;9.994;2023-04-16T07:05:38;2.95;;;1.60;;
34739;SDS011;20967;48.442;9.994;2023-04-16T07:08:07;1.95;;;1.25;;
34739;SDS011;20967;48.442;9.994;2023-04-16T07:10:35;3.98;;;1.40;;
34739;SDS011;20967;48.442;9.994;2023-04-16T07:13:04;2.50;;;1.40;;
34739;SDS011;20967;48.442;9.994;2023-04-16T07:15:32;2.42;;;1.17;;
34739;SDS011;20967;48.442;9.994;2023-04-16T07:17:59;1.95;;;1.35;;
34739;SDS011;20967;48.442;9.994;2023-04-16T07:20:27;1.95;;;1.12;;
34739;SDS011;20967;48.442;9.994;2023-04-16T07:22:54;2.60;;;1.45;;
34739;SDS011;20967;48.442;9.994;2023-04-16T07:25:24;2.52;;;1.70;;
34739;SDS011;20967;48.442;9.994;2023-04-16T07:27:52;5.83;;;1.42;;
34739;SDS011;20967;48.442;9.994;2023-04-16T07:30:19;2.72;;;1.47;;
34739;SDS011;20967;48.442;9.994;2023-04-16T07:32:47;7.17;;;2.40;;
34739;SDS011;20967;48.442;9.994;2023-04-16T07:35:16;2.55;;;1.40;;
34739;SDS011;20967;48.442;9.994;2023-04-16T07:37:46;2.85;;;1.72;;
34739;SDS011;20967;48.442;9.994;2023-04-16T07:40:14;3.45;;;1.82;;
34739;SDS011;20967;48.442;9.994;2023-04-16T07:42:44;5.70;;;2.10;;
34739;SDS011;20967;48.442;9.994;2023-04-16T07:45:12;2.25;;;1.60;;
34739;SDS011;20967;48.442;9.994;2023-04-16T07:47:41;3.75;;;1.70;;
34739;SDS011;20967;48.442;9.994;2023-04-16T07:50:10;2.75;;;1.77;;
34739;SDS011;20967;48.442;9.994;2023-04-16T07:52:38;2.35;;;1.40;;
34739;SDS011;20967;48.442;9.994;2023-04-16T07:55:07;4.80;;;1.70;;
34739;SDS011;20967;48.442;9.994;2023-04-16T07:57:35;4.22;;;1.98;;
34739;SDS011;20967;48.442;9.994;2023-04-16T08:00:03;3.22;;;1.87;;
34739;SDS011;20967;48.442;9.994;2023-04-16T08:02:31;2.20;;;1.40;;
34739;SDS011;20967;48.442;9.994;2023-04-16T08:04:59;2.33;;;1.57;;
34739;SDS011;20967;48.442;9.994;2023-04-16T08:07:26;3.70;;;1.98;;
34739;SDS011;20967;48.442;9.994;2023-04-16T08:09:54;2.22;;;1.40;;
34739;SDS011;20967;48.442;9.994;2023-04-16T08:12:22;2.00;;;1.40;;
34739;SDS011;20967;48.442;9.994;2023-04-16T08:14:52;2.72;;;1.70;;
34739;SDS011;20967;48.442;9.994;2023-04-16T08:19:55;3.37;;;2.00;;
34739;SDS011;20967;48.442;9.994;2023-04-16T08:22:23;2.75;;;1.52;;
34739;SDS011;20967;48.442;9.994;2023-04-16T08:24:51;3.83;;;1.92;;
34739;SDS011;20967;48.442;9.994;2023-04-16T08:27:19;4.50;;;1.47;;
34739;SDS011;20967;48.442;9.994;2023-04-16T08:29:46;2.90;;;1.82;;
34739;SDS011;20967;48.442;9.994;2023-04-16T08:32:14;2.85;;;1.60;;
34739;SDS011;20967;48.442;9.994;2023-04-16T08:34:44;2.87;;;1.82;;
34739;SDS011;20967;48.442;9.994;2023-04-16T08:37:12;7.33;;;2.05;;
34739;SDS011;20967;48.442;9.994;2023-04-16T08:39:40;6.67;;;2.98;;
34739;SDS011;20967;48.442;9.994;2023-04-16T08:42:12;3.80;;;2.00;;
34739;SDS011;20967;48.442;9.994;2023-04-16T08:44:44;3.65;;;2.17;;
34739;SDS011;20967;48.442;9.994;2023-04-16T08:47:11;2.85;;;1.57;;
34739;SDS011;20967;48.442;9.994;2023-04-16T08:49:42;4.15;;;2.50;;
34739;SDS011;20967;48.442;9.994;2023-04-16T08:52:07;2.55;;;1.55;;
34739;SDS011;20967;48.442;9.994;2023-04-16T08:54:42;4.03;;;1.62;;
34739;SDS011;20967;48.442;9.994;2023-04-16T08:57:25;3.65;;;1.50;;
34739;SDS011;20967;48.442;9.994;2023-04-16T08:59:55;2.50;;;1.62;;
34739;SDS011;20967;48.442;9.994;2023-04-16T09:02:24;2.60;;;1.60;;
34739;SDS011;20967;48.442;9.994;2023-04-16T09:04:56;7.03;;;1.80;;
34739;SDS011;20967;48.442;9.994;2023-04-16T09:07:27;4.58;;;2.42;;
34739;SDS011;20967;48.442;9.994;2023-04-16T09:09:58;3.05;;;2.00;;
34739;SDS011;20967;48.442;9.994;2023-04-16T09:12:26;3.10;;;1.70;;
34739;SDS011;20967;48.442;9.994;2023-04-16T09:14:56;4.35;;;1.60;;
34739;SDS011;20967;48.442;9.994;2023-04-16T09:17:27;3.37;;;1.92;;
34739;SDS011;20967;48.442;9.994;2023-04-16T09:19:55;3.80;;;2.40;;
34739;SDS011;20967;48.442;9.994;2023-04-16T09:22:23;3.45;;;1.87;;
34739;SDS011;20967;48.442;9.994;2023-04-16T09:24:51;3.02;;;1.60;;
34739;SDS011;20967;48.442;9.994;2023-04-16T09:27:19;3.15;;;1.77;;
34739;SDS011;20967;48.442;9.994;2023-04-16T09:29:47;2.62;;;1.75;;
34739;SDS011;20967;48.442;9.994;2023-04-16T09:32:15;3.37;;;1.80;;
34739;SDS011;20967;48.442;9.994;2023-04-16T09:35:18;1.72;;;1.32;;
34739;SDS011;20967;48.442;9.994;2023-04-16T09:39:59;3.37;;;1.82;;
34739;SDS011;20967;48.442;9.994;2023-04-16T09:44:55;4.47;;;2.45;;
34739;SDS011;20967;48.442;9.994;2023-04-16T09:47:37;3.10;;;1.95;;
34739;SDS011;20967;48.442;9.994;2023-04-16T09:49:52;5.10;;;2.83;;
34739;SDS011;20967;48.442;9.994;2023-04-16T09:52:21;3.33;;;2.20;;
34739;SDS011;20967;48.442;9.994;2023-04-16T09:54:53;4.80;;;2.90;;
34739;SDS011;20967;48.442;9.994;2023-04-16T09:57:23;6.40;;;2.95;;
34739;SDS011;20967;48.442;9.994;2023-04-16T09:59:52;3.72;;;2.30;;
34739;SDS011;20967;48.442;9.994;2023-04-16T10:02:22;5.28;;;2.47;;
34739;SDS011;20967;48.442;9.994;2023-04-16T10:04:51;2.95;;;2.00;;
34739;SDS011;20967;48.442;9.994;2023-04-16T10:07:19;5.58;;;2.80;;
34739;SDS011;20967;48.442;9.994;2023-04-16T10:12:23;4.33;;;2.45;;
34739;SDS011;20967;48.442;9.994;2023-04-16T10:14:51;6.22;;;2.92;;
34739;SDS011;20967;48.442;9.994;2023-04-16T10:17:22;5.58;;;3.33;;
34739;SDS011;20967;48.442;9.994;2023-04-16T10:19:49;6.95;;;3.17;;
34739;SDS011;20967;48.442;9.994;2023-04-16T10:22:17;4.62;;;2.35;;
34739;SDS011;20967;48.442;9.994;2023-04-16T10:24:45;6.37;;;2.77;;
34739;SDS011;20967;48.442;9.994;2023-04-16T10:27:13;4.42;;;2.50;;
34739;SDS011;20967;48.442;9.994;2023-04-16T10:29:42;3.37;;;1.92;;
34739;SDS011;20967;48.442;9.994;2023-04-16T10:32:10;32.90;;;13.78;;
34739;SDS011;20967;48.442;9.994;2023-04-16T10:34:39;7.03;;;3.55;;
34739;SDS011;20967;48.442;9.994;2023-04-16T10:37:07;10.18;;;5.62;;
34739;SDS011;20967;48.442;9.994;2023-04-16T10:39:37;4.42;;;2.20;;
34739;SDS011;20967;48.442;9.994;2023-04-16T10:42:10;2.62;;;2.30;;
34739;SDS011;20967;48.442;9.994;2023-04-16T10:44:41;3.80;;;2.52;;
34739;SDS011;20967;48.442;9.994;2023-04-16T10:47:09;4.92;;;2.75;;
34739;SDS011;20967;48.442;9.994;2023-04-16T10:49:38;3.12;;;1.80;;
34739;SDS011;20967;48.442;9.994;2023-04-16T10:52:12;2.62;;;1.70;;
34739;SDS011;20967;48.442;9.994;2023-04-16T10:57:19;8.93;;;1.55;;
34739;SDS011;20967;48.442;9.994;2023-04-16T10:59:53;4.92;;;2.50;;
34739;SDS011;20967;48.442;9.994;2023-04-16T11:02:23;3.37;;;1.75;;
34739;SDS011;20967;48.442;9.994;2023-04-16T11:04:53;4.17;;;2.33;;
34739;SDS011;20967;48.442;9.994;2023-04-16T11:07:33;3.65;;;1.80;;
34739;SDS011;20967;48.442;9.994;2023-04-16T11:12:40;2.58;;;1.90;;
34739;SDS011;20967;48.442;9.994;2023-04-16T11:17:48;4.67;;;2.17;;
34739;SDS011;20967;48.442;9.994;2023-04-16T11:20:18;3.17;;;1.87;;
34739;SDS011;20967;48.442;9.994;2023-04-16T11:22:50;4.28;;;2.22;;
34739;SDS011;20967;48.442;9.994;2023-04-16T11:25:26;3.70;;;2.12;;
34739;SDS011;20967;48.442;9.994;2023-04-16T11:30:28;5.62;;;3.45;;
34739;SDS011;20967;48.442;9.994;2023-04-16T11:35:30;7.25;;;2.77;;
34739;SDS011;20967;48.442;9.994;2023-04-16T11:37:58;5.28;;;2.12;;
34739;SDS011;20967;48.442;9.994;2023-04-16T11:40:28;5.62;;;2.20;;
34739;SDS011;20967;48.442;9.994;2023-04-16T11:43:00;4.95;;;2.52;;
34739;SDS011;20967;48.442;9.994;2023-04-16T11:45:30;5.97;;;3.25;;
34739;SDS011;20967;48.442;9.994;2023-04-16T11:47:57;4.62;;;2.27;;
34739;SDS011;20967;48.442;9.994;2023-04-16T11:50:27;4.20;;;2.92;;
34739;SDS011;20967;48.442;9.994;2023-04-16T11:52:57;4.67;;;2.75;;
34739;SDS011;20967;48.442;9.994;2023-04-16T11:55:25;5.67;;;2.62;;
34739;SDS011;20967;48.442;9.994;2023-04-16T11:57:52;6.03;;;2.92;;
34739;SDS011;20967;48.442;9.994;2023-04-16T12:00:20;7.72;;;3.70;;
34739;SDS011;20967;48.442;9.994;2023-04-16T12:02:50;6.28;;;2.70;;
34739;SDS011;20967;48.442;9.994;2023-04-16T12:05:30;6.17;;;3.47;;
34739;SDS011;20967;48.442;9.994;2023-04-16T12:10:26;10.30;;;4.10;;
34739;SDS011;20967;48.442;9.994;2023-04-16T12:12:54;9.40;;;3.87;;
34739;SDS011;20967;48.442;9.994;2023-04-16T12:15:23;8.75;;;4.62;;
34739;SDS011;20967;48.442;9.994;2023-04-16T12:18:04;9.53;;;5.33;;
34739;SDS011;20967;48.442;9.994;2023-04-16T12:23:08;8.68;;;4.05;;
34739;SDS011;20967;48.442;9.994;2023-04-16T12:25:41;7.72;;;3.67;;
34739;SDS011;20967;48.442;9.994;2023-04-16T12:28:08;6.03;;;3.37;;
34739;SDS011;20967;48.442;9.994;2023-04-16T12:30:47;7.12;;;3.95;;
34739;SDS011;20967;48.442;9.994;2023-04-16T12:33:14;9.38;;;3.75;;
34739;SDS011;20967;48.442;9.994;2023-04-16T12:35:46;6.42;;;3.50;;
34739;SDS011;20967;48.442;9.994;2023-04-16T12:38:16;5.70;;;3.00;;
34739;SDS011;20967;48.442;9.994;2023-04-16T12:40:46;5.67;;;3.10;;
34739;SDS011;20967;48.442;9.994;2023-04-16T12:43:15;5.83;;;2.92;;
34739;SDS011;20967;48.442;9.994;2023-04-16T12:45:42;4.85;;;2.67;;
34739;SDS011;20967;48.442;9.994;2023-04-16T12:48:12;5.83;;;2.60;;
34739;SDS011;20967;48.442;9.994;2023-04-16T12:50:40;4.53;;;2.35;;
34739;SDS011;20967;48.442;9.994;2023-04-16T12:53:09;5.80;;;2.83;;
34739;SDS011;20967;48.442;9.994;2023-04-16T12:55:38;6.87;;;2.42;;
34739;SDS011;20967;48.442;9.994;2023-04-16T12:58:05;6.53;;;3.47;;
34739;SDS011;20967;48.442;9.994;2023-04-16T13:00:33;4.55;;;2.42;;
34739;SDS011;20967;48.442;9.994;2023-04-16T13:03:00;5.15;;;2.65;;
34739;SDS011;20967;48.442;9.994;2023-04-16T13:05:28;4.30;;;2.25;;
34739;SDS011;20967;48.442;9.994;2023-04-16T13:07:55;4.33;;;2.47;;
34739;SDS011;20967;48.442;9.994;2023-04-16T13:10:23;5.62;;;2.58;;
34739;SDS011;20967;48.442;9.994;2023-04-16T13:12:52;5.22;;;2.35;;
34739;SDS011;20967;48.442;9.994;2023-04-16T13:15:20;4.28;;;2.05;;
34739;SDS011;20967;48.442;9.994;2023-04-16T13:17:50;4.60;;;2.02;;
34739;SDS011;20967;48.442;9.994;2023-04-16T13:20:17;4.97;;;2.55;;
34739;SDS011;20967;48.442;9.994;2023-04-16T13:22:44;3.65;;;1.98;;
34739;SDS011;20967;48.442;9.994;2023-04-16T13:25:12;4.40;;;2.27;;
34739;SDS011;20967;48.442;9.994;2023-04-16T13:27:39;3.58;;;2.00;;
34739;SDS011;20967;48.442;9.994;2023-04-16T13:30:07;3.25;;;2.05;;
34739;SDS011;20967;48.442;9.994;2023-04-16T13:32:37;4.90;;;1.90;;
34739;SDS011;20967;48.442;9.994;2023-04-16T13:35:04;4.45;;;2.27;;
34739;SDS011;20967;48.442;9.994;2023-04-16T13:37:33;4.72;;;2.08;;
34739;SDS011;20967;48.442;9.994;2023-04-16T13:40:03;7.67;;;3.05;;
34739;SDS011;20967;48.442;9.994;2023-04-16T13:42:30;3.77;;;2.12;;
34739;SDS011;20967;48.442;9.994;2023-04-16T13:44:57;2.80;;;1.75;;
34739;SDS011;20967;48.442;9.994;2023-04-16T13:47:25;5.17;;;2.10;;
34739;SDS011;20967;48.442;9.994;2023-04-16T13:49:52;3.87;;;1.90;;
34739;SDS011;20967;48.442;9.994;2023-04-16T13:52:20;4.33;;;2.40;;
34739;SDS011;20967;48.442;9.994;2023-04-16T13:54:47;3.35;;;2.05;;
34739;SDS011;20967;48.442;9.994;2023-04-16T13:57:15;3.33;;;1.95;;
34739;SDS011;20967;48.442;9.994;2023-04-16T13:59:43;4.20;;;2.05;;
34739;SDS011;20967;48.442;9.994;2023-04-16T14:02:11;3.37;;;1.67;;
34739;SDS011;20967;48.442;9.994;2023-04-16T14:04:39;4.05;;;1.98;;
34739;SDS011;20967;48.442;9.994;2023-04-16T14:07:09;3.65;;;2.10;;
34739;SDS011;20967;48.442;9.994;2023-04-16T14:09:40;4.00;;;2.22;;
34739;SDS011;20967;48.442;9.994;2023-04-16T14:12:11;3.80;;;2.20;;
34739;SDS011;20967;48.442;9.994;2023-04-16T14:14:42;4.83;;;2.50;;
34739;SDS011;20967;48.442;9.994;2023-04-16T14:17:10;4.10;;;2.02;;
34739;SDS011;20967;48.442;9.994;2023-04-16T14:19:37;3.67;;;2.22;;
34739;SDS011;20967;48.442;9.994;2023-04-16T14:22:05;4.53;;;2.22;;
34739;SDS011;20967;48.442;9.994;2023-04-16T14:24:35;4.47;;;2.05;;
34739;SDS011;20967;48.442;9.994;2023-04-16T14:27:02;4.05;;;2.33;;
34739;SDS011;20967;48.442;9.994;2023-04-16T14:29:29;3.08;;;2.22;;
34739;SDS011;20967;48.442;9.994;2023-04-16T14:31:57;4.22;;;2.50;;
34739;SDS011;20967;48.442;9.994;2023-04-16T14:34:24;3.60;;;2.20;;
34739;SDS011;20967;48.442;9.994;2023-04-16T14:36:53;11.57;;;3.85;;
34739;SDS011;20967;48.442;9.994;2023-04-16T14:39:21;7.75;;;3.30;;
34739;SDS011;20967;48.442;9.994;2023-04-16T14:41:51;6.00;;;2.98;;
34739;SDS011;20967;48.442;9.994;2023-04-16T14:44:23;9.15;;;3.98;;
34739;SDS011;20967;48.442;9.994;2023-04-16T14:46:54;9.23;;;4.30;;
34739;SDS011;20967;48.442;9.994;2023-04-16T14:49:25;13.62;;;5.37;;
34739;SDS011;20967;48.442;9.994;2023-04-16T14:51:52;6.70;;;3.62;;
34739;SDS011;20967;48.442;9.994;2023-04-16T14:54:22;8.03;;;3.92;;
34739;SDS011;20967;48.442;9.994;2023-04-16T14:59:22;5.35;;;2.92;;
34739;SDS011;20967;48.442;9.994;2023-04-16T15:01:52;5.30;;;2.87;;
34739;SDS011;20967;48.442;9.994;2023-04-16T15:04:24;5.28;;;2.42;;
34739;SDS011;20967;48.442;9.994;2023-04-16T15:06:53;5.33;;;2.25;;
34739;SDS011;20967;48.442;9.994;2023-04-16T15:09:23;5.10;;;2.77;;
34739;SDS011;20967;48.442;9.994;2023-04-16T15:11:52;5.37;;;2.90;;
34739;SDS011;20967;48.442;9.994;2023-04-16T15:14:20;5.47;;;2.65;;
34739;SDS011;20967;48.442;9.994;2023-04-16T15:16:49;6.33;;;2.87;;
34739;SDS011;20967;48.442;9.994;2023-04-16T15:19:17;4.75;;;2.87;;
34739;SDS011;20967;48.442;9.994;2023-04-16T15:21:44;4.75;;;2.60;;
34739;SDS011;20967;48.442;9.994;2023-04-16T15:24:12;3.33;;;2.15;;
34739;SDS011;20967;48.442;9.994;2023-04-16T15:26:39;4.45;;;2.20;;
34739;SDS011;20967;48.442;9.994;2023-04-16T15:29:09;4.55;;;2.25;;
34739;SDS011;20967;48.442;9.994;2023-04-16T15:31:39;3.98;;;2.37;;